Time;durP1;ratioP1;P1;durP2;ratioP2;P2;SDS_P1;SDS_P2;PMS_P1;PMS_P2;Temp;Humidity;BMP_temperature;BMP_pressure;BME280_temperature;BME280_humidity;BME280_pressure;Samples;Min_cycle;Max_cycle;Signal;HPM_P1;HPM_P2
2022/05/23 00:01:54;;;;;;;4.88;3.80;;;;;;;17.33;62.56;99060.78;5053361;28;20446;-66
2022/05/23 00:04:39;;;;;;;5.30;3.85;;;;;;;17.31;62.50;99059.97;5052676;28;20076;-65
2022/05/23 00:07:32;;;;;;;7.45;3.72;;;;;;;17.31;62.78;99066.06;5057407;28;20122;-65
2022/05/23 00:10:19;;;;;;;4.97;3.97;;;;;;;17.31;62.62;99066.06;5056131;28;20416;-66
2022/05/23 00:13:03;;;;;;;6.68;4.05;;;;;;;17.31;62.66;99062.56;5056623;28;20051;-66
2022/05/23 00:15:47;;;;;;;8.75;3.97;;;;;;;17.31;62.77;99057.34;5057151;28;20555;-65
2022/05/23 00:18:31;;;;;;;8.80;4.43;;;;;;;17.31;62.59;99055.59;5057279;28;20563;-64
2022/05/23 00:21:18;;;;;;;6.25;3.60;;;;;;;17.31;62.73;99054.72;5056787;28;20132;-65
2022/05/23 00:24:02;;;;;;;6.07;3.88;;;;;;;17.31;62.80;99052.09;5056196;28;20132;-65
2022/05/23 00:26:49;;;;;;;5.63;3.58;;;;;;;17.30;62.74;99050.38;5057265;28;20071;-65
2022/05/23 00:29:33;;;;;;;7.43;3.88;;;;;;;17.30;62.72;99045.16;5055811;28;20124;-64
2022/05/23 00:35:21;;;;;;;4.55;3.35;;;;;;;17.29;62.87;99044.31;5056983;28;20151;-64
2022/05/23 00:38:05;;;;;;;4.63;3.38;;;;;;;17.29;62.83;99041.69;5056369;28;20068;-65
2022/05/23 00:44:04;;;;;;;6.78;3.88;;;;;;;17.29;62.84;99036.44;5048199;28;20095;-64
2022/05/23 00:47:00;;;;;;;6.35;3.83;;;;;;;17.30;62.95;99021.56;5055621;28;20048;-65
2022/05/23 00:49:45;;;;;;;6.88;3.90;;;;;;;17.29;62.94;99030.34;5055391;28;20526;-65
2022/05/23 00:52:33;;;;;;;6.38;3.55;;;;;;;17.30;62.94;99029.44;5055409;28;20099;-65
2022/05/23 00:55:26;;;;;;;5.40;3.70;;;;;;;17.30;62.94;99040.78;5055904;28;20122;-65
2022/05/23 00:58:17;;;;;;;4.88;3.50;;;;;;;17.30;62.96;99040.78;5056582;28;20523;-65
2022/05/23 01:01:05;;;;;;;7.40;3.55;;;;;;;17.30;63.05;99035.53;5055476;28;20159;-65
2022/05/23 01:03:50;;;;;;;8.55;3.72;;;;;;;17.30;62.94;99040.78;5056567;28;20463;-65
2022/05/23 01:06:34;;;;;;;4.55;3.75;;;;;;;17.30;62.94;99048.63;5056409;28;20048;-65
2022/05/23 01:09:22;;;;;;;4.75;3.38;;;;;;;17.30;62.99;99040.78;5055130;28;20048;-65
2022/05/23 01:12:07;;;;;;;4.32;3.03;;;;;;;17.30;63.07;99034.66;5055225;28;20128;-65
2022/05/23 01:14:57;;;;;;;6.78;3.85;;;;;;;17.30;63.01;99035.53;5055073;28;20124;-65
2022/05/23 01:17:42;;;;;;;5.50;3.72;;;;;;;17.31;62.95;99033.78;5054324;28;20132;-65
2022/05/23 01:20:28;;;;;;;4.40;3.35;;;;;;;17.31;62.95;99033.78;5056070;28;20056;-65
2022/05/23 01:23:21;;;;;;;5.50;3.63;;;;;;;17.31;63.00;99032.03;5055426;28;20048;-65
2022/05/23 01:26:06;;;;;;;7.88;3.25;;;;;;;17.30;63.06;99035.53;5055339;28;20126;-65
2022/05/23 01:28:51;;;;;;;5.50;3.53;;;;;;;17.29;62.81;99028.59;5056145;28;20055;-65
2022/05/23 01:31:35;;;;;;;5.32;3.20;;;;;;;17.28;62.90;99024.25;5055924;28;20044;-65
2022/05/23 01:34:19;;;;;;;7.22;3.40;;;;;;;17.30;63.10;99016.34;5056067;28;20048;-65
2022/05/23 01:37:03;;;;;;;3.40;2.75;;;;;;;17.28;63.10;99005.91;5055818;28;20412;-65
2022/05/23 01:39:47;;;;;;;7.43;3.80;;;;;;;17.28;63.15;99005.91;5055462;28;20051;-65
2022/05/23 01:42:31;;;;;;;7.30;3.53;;;;;;;17.28;63.22;99005.09;5055247;28;20412;-65
2022/05/23 01:45:18;;;;;;;5.70;3.40;;;;;;;17.28;63.12;99010.31;5055429;28;20056;-65
2022/05/23 01:48:02;;;;;;;4.47;3.10;;;;;;;17.28;63.38;99015.56;5055706;28;20087;-65
2022/05/23 01:50:47;;;;;;;2.97;2.72;;;;;;;17.28;63.33;99005.09;5054504;28;20040;-65
2022/05/23 01:53:31;;;;;;;4.35;3.50;;;;;;;17.28;63.23;99000.69;5054706;28;20121;-65
2022/05/23 01:56:14;;;;;;;3.50;3.03;;;;;;;17.28;63.25;99005.91;5055613;28;20108;-66
2022/05/23 02:02:16;;;;;;;4.13;3.13;;;;;;;17.27;63.29;99003.38;5037616;28;20511;-65
2022/05/23 02:05:00;;;;;;;4.53;2.95;;;;;;;17.27;63.31;98996.34;5054997;28;20048;-65
2022/05/23 02:07:44;;;;;;;5.93;3.20;;;;;;;17.27;63.61;98987.66;5055043;28;20400;-65
2022/05/23 02:10:29;;;;;;;4.30;3.00;;;;;;;17.26;63.34;98999.88;5053793;28;20083;-65
2022/05/23 02:13:12;;;;;;;5.43;3.22;;;;;;;17.24;63.27;98992.97;5054466;28;20094;-65
2022/05/23 02:15:56;;;;;;;4.03;2.85;;;;;;;17.26;63.38;98999.03;5054982;28;20408;-65
2022/05/23 02:18:40;;;;;;;4.43;3.53;;;;;;;17.25;63.22;98984.22;5054331;28;20064;-65
2022/05/23 02:21:24;;;;;;;6.55;3.15;;;;;;;17.25;63.48;98987.69;5054910;28;20458;-65
2022/05/23 02:24:08;;;;;;;3.85;3.00;;;;;;;17.24;63.50;98991.19;5055210;28;20064;-65
2022/05/23 02:26:52;;;;;;;8.15;3.53;;;;;;;17.25;63.46;98984.22;5054367;28;20518;-66
2022/05/23 02:29:36;;;;;;;7.82;3.25;;;;;;;17.25;63.47;98984.22;5052763;28;20093;-65
2022/05/23 02:32:21;;;;;;;5.22;3.35;;;;;;;17.23;63.35;98979.00;5054920;28;20102;-65
2022/05/23 02:35:07;;;;;;;3.15;2.42;;;;;;;17.24;63.55;98966.78;5054716;28;20556;-65
2022/05/23 02:37:50;;;;;;;3.75;3.05;;;;;;;17.22;63.43;98956.34;5054361;28;20055;-65
2022/05/23 02:40:34;;;;;;;10.23;3.28;;;;;;;17.21;63.45;98944.16;5053535;28;20071;-65
2022/05/23 02:43:18;;;;;;;4.53;2.70;;;;;;;17.23;63.51;98947.59;5054244;28;20110;-65
2022/05/23 02:46:03;;;;;;;4.03;2.58;;;;;;;17.22;63.49;98932.78;5054487;28;20136;-65
2022/05/23 02:48:47;;;;;;;5.85;2.67;;;;;;;17.22;63.55;98917.06;5054171;28;20048;-65
2022/05/23 02:51:31;;;;;;;;;;;;;;;17.18;63.43;98912.84;5054983;28;20048;-65
2022/05/23 02:54:15;;;;;;;3.28;2.97;;;;;;;17.16;63.57;98905.03;5054532;28;19927;-65
2022/05/23 02:56:59;;;;;;;5.13;3.10;;;;;;;17.16;63.62;98891.09;5054390;28;20060;-65
2022/05/23 02:59:43;;;;;;;4.13;3.40;;;;;;;17.15;63.76;98884.97;5054322;28;20048;-65
2022/05/23 03:05:48;;;;;;;5.80;3.30;;;;;;;17.14;63.76;98871.94;5054077;28;20522;-65
2022/05/23 03:08:32;;;;;;;4.95;3.00;;;;;;;17.13;63.75;98854.53;5054099;28;20575;-66
2022/05/23 03:11:16;;;;;;;5.38;2.75;;;;;;;17.12;63.65;98858.91;5053884;28;20523;-65
2022/05/23 03:14:00;;;;;;;4.63;3.17;;;;;;;17.12;63.81;98844.94;5053978;28;20067;-65
2022/05/23 03:16:44;;;;;;;4.95;3.30;;;;;;;17.11;63.73;98831.03;5054116;28;20110;-64
2022/05/23 03:19:28;;;;;;;4.10;2.78;;;;;;;17.09;63.66;98814.50;5053184;28;20567;-65
2022/05/23 03:28:20;;;;;;;4.18;3.10;;;;;;;17.08;63.74;98793.59;5053592;28;20519;-65
2022/05/23 03:31:04;;;;;;;4.78;3.13;;;;;;;17.08;63.99;98789.22;5053277;28;20463;-65
2022/05/23 03:33:49;;;;;;;4.38;3.13;;;;;;;17.08;63.76;98785.75;5052422;28;20420;-66
2022/05/23 03:36:33;;;;;;;3.97;3.15;;;;;;;17.08;63.60;98783.13;5053757;28;20044;-65
2022/05/23 03:39:17;;;;;;;3.47;2.80;;;;;;;17.09;63.70;98771.75;5053398;28;20190;-65
2022/05/23 03:42:01;;;;;;;3.83;2.80;;;;;;;17.07;63.98;98776.16;5053027;28;20099;-65
2022/05/23 03:44:45;;;;;;;6.65;3.30;;;;;;;17.06;63.85;98780.56;5053626;28;20052;-65
2022/05/23 03:47:29;;;;;;;;;;;;;;;17.04;63.88;98772.78;5053651;28;20405;-66
2022/05/23 03:50:14;;;;;;;5.05;2.95;;;;;;;17.04;63.90;98766.66;5066779;28;20322;-65
2022/05/23 03:53:00;;;;;;;4.85;2.35;;;;;;;17.03;63.93;98765.81;5052799;28;20463;-65
2022/05/23 03:55:44;;;;;;;4.85;2.30;;;;;;;17.01;63.89;98757.16;5053051;28;20518;-66
2022/05/23 03:58:29;;;;;;;3.30;2.78;;;;;;;17.03;63.61;98764.94;5053299;28;20048;-66
2022/05/23 04:01:15;;;;;;;;;;;;;;;17.01;63.80;98751.94;5052598;28;20098;-65
2022/05/23 04:03:59;;;;;;;3.08;2.55;;;;;;;17.00;63.84;98747.59;5052385;28;19947;-65
2022/05/23 04:06:43;;;;;;;3.83;2.78;;;;;;;17.01;63.76;98751.94;5053612;28;20048;-65
2022/05/23 04:09:28;;;;;;;3.85;2.60;;;;;;;17.01;63.83;98744.06;5051717;28;20407;-65
2022/05/23 04:12:12;;;;;;;4.68;3.03;;;;;;;17.00;63.90;98738.88;5052343;28;20048;-65
2022/05/23 04:14:56;;;;;;;3.83;2.38;;;;;;;17.01;63.98;98741.47;5053170;28;20083;-66
2022/05/23 04:17:40;;;;;;;4.85;2.75;;;;;;;16.99;64.04;98732.78;5052694;28;20052;-66
2022/05/23 04:20:24;;;;;;;3.60;2.90;;;;;;;16.99;64.00;98724.94;5053355;28;20138;-65
2022/05/23 04:23:09;;;;;;;4.20;2.70;;;;;;;16.99;64.04;98718.84;5052658;28;20040;-65
2022/05/23 04:25:53;;;;;;;3.63;2.50;;;;;;;16.99;63.80;98721.44;5052046;28;20420;-65
2022/05/23 04:28:41;;;;;;;3.28;2.72;;;;;;;16.99;64.21;98716.22;5052860;28;20047;-65
2022/05/23 04:31:25;;;;;;;5.22;2.38;;;;;;;16.99;64.36;98717.09;5052138;28;20064;-65
2022/05/23 04:37:12;;;;;;;3.70;2.75;;;;;;;16.98;64.04;98706.66;5052656;28;20044;-66
2022/05/23 04:39:56;;;;;;;3.15;2.50;;;;;;;16.98;64.06;98704.91;5053164;28;20100;-65
2022/05/23 04:42:39;;;;;;;3.28;2.50;;;;;;;16.98;63.88;98699.69;5052557;28;20044;-65
2022/05/23 04:45:24;;;;;;;2.90;2.42;;;;;;;16.97;64.24;98695.34;5052676;28;20055;-64
2022/05/23 04:51:15;;;;;;;3.40;2.47;;;;;;;16.97;64.26;98682.25;5045437;28;20514;-65
2022/05/23 04:54:00;;;;;;;;;;;;;;;16.98;64.16;98678.75;5056575;28;20618;-65
2022/05/23 04:56:44;;;;;;;6.68;2.90;;;;;;;16.97;64.28;98670.94;5056642;28;19924;-65
2022/05/23 04:59:28;;;;;;;4.35;2.50;;;;;;;16.98;64.11;98672.63;5055818;28;20103;-66
2022/05/23 05:02:12;;;;;;;2.90;2.28;;;;;;;16.97;64.43;98677.03;5055947;28;20421;-65
2022/05/23 05:04:56;;;;;;;3.83;2.13;;;;;;;16.97;64.54;98669.16;5055845;28;20106;-65
2022/05/23 05:07:40;;;;;;;5.47;2.88;;;;;;;16.97;64.33;98666.56;5056262;28;20073;-65
2022/05/23 05:10:24;;;;;;;2.95;2.13;;;;;;;16.98;64.51;98667.41;5055230;28;20547;-66
2022/05/23 05:13:08;;;;;;;5.50;3.42;;;;;;;16.98;64.66;98668.28;5056550;28;20396;-65
2022/05/23 05:15:53;;;;;;;3.60;2.70;;;;;;;16.99;64.41;98680.44;5056534;28;20043;-65
2022/05/23 05:18:37;;;;;;;5.00;2.97;;;;;;;16.99;64.68;98666.50;5054902;28;20416;-64
2022/05/23 05:21:22;;;;;;;3.17;2.63;;;;;;;16.97;64.76;98657.88;5055143;28;20095;-65
2022/05/23 05:24:06;;;;;;;4.80;2.75;;;;;;;16.99;64.36;98656.91;5056000;28;20538;-65
2022/05/23 05:26:50;;;;;;;3.40;2.47;;;;;;;16.98;64.61;98652.56;5055724;28;20040;-66
2022/05/23 05:29:34;;;;;;;4.97;2.60;;;;;;;16.99;64.55;98648.19;5055896;28;20095;-65
2022/05/23 05:32:29;;;;;;;3.78;2.38;;;;;;;16.99;64.50;98656.03;5055408;28;20044;-65
2022/05/23 05:35:30;;;;;;;3.63;2.55;;;;;;;16.99;64.65;98654.28;5054860;28;20598;-65
2022/05/23 05:38:33;;;;;;;3.28;2.25;;;;;;;16.97;64.71;98645.63;5054671;28;20052;-66
2022/05/23 05:41:35;;;;;;;6.40;2.65;;;;;;;16.99;64.46;98646.44;5054919;28;20060;-66
2022/05/23 05:44:25;;;;;;;3.58;2.53;;;;;;;17.01;64.52;98649.84;5054827;28;20048;-65
2022/05/23 05:47:14;;;;;;;2.95;2.33;;;;;;;17.01;64.81;98633.28;5054742;28;20052;-66
2022/05/23 05:50:04;;;;;;;3.60;2.88;;;;;;;17.01;64.54;98634.16;5055128;28;20048;-66
2022/05/23 05:52:49;;;;;;;6.30;2.83;;;;;;;17.01;64.75;98631.53;5054480;28;20128;-66
2022/05/23 05:55:33;;;;;;;4.13;2.50;;;;;;;17.01;64.73;98620.19;5055284;28;20543;-65
2022/05/23 05:58:18;;;;;;;3.05;2.40;;;;;;;17.01;64.68;98614.97;5054588;28;20056;-65
2022/05/23 06:01:04;;;;;;;3.28;2.55;;;;;;;17.01;64.70;98615.84;5054632;28;20080;-65
2022/05/23 06:03:49;;;;;;;5.15;2.83;;;;;;;17.02;64.62;98620.16;5054011;28;20472;-65
2022/05/23 06:12:38;;;;;;;2.90;2.60;;;;;;;17.02;64.74;98612.31;5054605;28;20048;-67
2022/05/23 06:15:23;;;;;;;3.60;2.53;;;;;;;17.03;64.74;98615.78;5054513;28;20546;-64
2022/05/23 06:18:07;;;;;;;4.30;2.50;;;;;;;17.01;64.88;98623.69;5055314;28;20048;-65
2022/05/23 06:20:52;;;;;;;5.57;2.72;;;;;;;17.03;64.72;98627.13;5055000;28;20079;-65
2022/05/23 06:23:37;;;;;;;4.07;2.70;;;;;;;17.04;64.67;98618.34;5054104;28;20068;-66
2022/05/23 06:26:23;;;;;;;6.85;2.90;;;;;;;17.04;64.68;98626.22;5053536;28;20052;-65
2022/05/23 06:29:07;;;;;;;4.32;2.60;;;;;;;17.05;64.79;98633.13;5053623;28;20129;-66
2022/05/23 06:31:51;;;;;;;5.55;2.95;;;;;;;17.06;64.49;98641.84;5054791;28;20155;-66
2022/05/23 06:34:35;;;;;;;5.00;3.25;;;;;;;17.05;64.51;98642.75;5053900;28;20048;-65
2022/05/23 06:37:20;;;;;;;3.67;2.50;;;;;;;17.07;64.48;98637.47;5054246;28;20102;-65
2022/05/23 06:40:08;;;;;;;3.35;2.50;;;;;;;17.08;64.71;98639.16;5054059;28;20411;-66
2022/05/23 06:42:52;;;;;;;4.60;2.63;;;;;;;17.06;64.69;98636.63;5053518;28;20083;-65
2022/05/23 06:45:36;;;;;;;5.63;2.85;;;;;;;17.07;64.49;98632.22;5054447;28;20067;-65
2022/05/23 06:48:22;;;;;;;4.28;2.70;;;;;;;17.07;64.46;98626.97;5054638;28;20091;-65
2022/05/23 06:51:07;;;;;;;7.00;2.90;;;;;;;17.08;64.56;98628.69;5054070;28;20134;-65
2022/05/23 06:53:52;;;;;;;3.80;2.50;;;;;;;17.07;64.42;98630.47;5054287;28;20048;-65
2022/05/23 06:56:36;;;;;;;3.65;2.35;;;;;;;17.08;64.62;98628.69;5052982;28;20048;-65
2022/05/23 06:59:20;;;;;;;5.88;3.15;;;;;;;17.09;64.45;98633.03;5054134;28;20091;-65
2022/05/23 07:02:07;;;;;;;6.78;2.67;;;;;;;17.08;64.60;98637.44;5053674;28;20052;-65
2022/05/23 07:14:00;;;;;;;5.85;2.60;;;;;;;17.10;64.48;98624.28;5053465;28;20511;-64
2022/05/23 07:16:44;;;;;;;5.30;2.38;;;;;;;17.10;64.73;98621.66;5052395;28;20048;-65
2022/05/23 07:19:28;;;;;;;6.97;3.00;;;;;;;17.11;64.41;98623.38;5054177;28;20503;-65
2022/05/23 07:22:12;;;;;;;5.65;3.10;;;;;;;17.12;64.42;98618.09;5053751;28;20634;-64
2022/05/23 07:24:57;;;;;;;4.72;2.55;;;;;;;17.09;64.74;98612.97;5052934;28;20052;-64
2022/05/23 07:27:41;;;;;;;4.53;2.90;;;;;;;17.11;64.66;98618.13;5053398;28;20079;-64
2022/05/23 07:30:25;;;;;;;4.13;3.10;;;;;;;17.11;64.72;98619.00;5053790;28;20047;-64
2022/05/23 07:33:09;;;;;;;3.90;2.65;;;;;;;17.10;64.76;98609.44;5053667;28;20043;-64
2022/05/23 07:35:57;;;;;;;;;;;;;;;17.09;64.66;98606.84;5053435;28;20110;-63
2022/05/23 07:38:42;;;;;;;4.40;2.38;;;;;;;17.07;64.71;98620.00;5053907;28;20005;-63
2022/05/23 07:41:26;;;;;;;2.85;2.20;;;;;;;17.06;64.90;98620.91;5053703;28;20052;-64
2022/05/23 07:44:12;;;;;;;5.45;2.45;;;;;;;17.06;64.65;98605.22;5052528;28;20052;-63
2022/05/23 07:46:56;;;;;;;5.25;2.83;;;;;;;17.07;64.70;98603.44;5052230;28;20407;-64
2022/05/23 07:49:40;;;;;;;;;;;;;;;17.05;64.59;98606.94;5053974;28;20040;-64
2022/05/23 07:52:24;;;;;;;8.77;2.83;;;;;;;17.07;64.76;98600.81;5052493;28;19954;-64
2022/05/23 08:01:14;;;;;;;7.22;2.95;;;;;;;17.10;64.89;98603.34;5052768;28;20048;-65
2022/05/23 08:03:58;;;;;;;5.13;2.88;;;;;;;17.12;64.81;98602.41;5052173;28;20075;-64
2022/05/23 08:06:43;;;;;;;7.43;2.55;;;;;;;17.17;64.76;98604.84;5051519;28;20118;-65
2022/05/23 08:09:26;;;;;;;;;;;;;;;17.16;64.62;98603.97;5051078;28;20048;-65
2022/05/23 08:12:14;;;;;;;4.38;2.90;;;;;;;17.16;64.92;98583.03;5051325;28;19974;-64
2022/05/23 08:14:58;;;;;;;5.03;3.13;;;;;;;17.16;65.07;98574.34;5050715;28;20488;-66
2022/05/23 08:17:42;;;;;;;7.32;3.05;;;;;;;17.15;64.72;98554.31;5051514;28;20039;-63
2022/05/23 08:20:26;;;;;;;4.18;2.75;;;;;;;17.17;65.09;98555.13;5051141;28;20566;-64
2022/05/23 08:23:11;;;;;;;10.18;2.58;;;;;;;17.17;64.65;98552.50;5051092;28;20554;-65
2022/05/23 08:25:54;;;;;;;6.88;3.42;;;;;;;17.19;64.54;98548.06;5052203;28;20138;-64
2022/05/23 08:28:39;;;;;;;13.15;3.38;;;;;;;17.22;64.55;98544.47;5056093;28;20044;-64
2022/05/23 08:31:22;;;;;;;;;;;;;;;17.22;64.75;98544.47;5057261;28;20048;-63
2022/05/23 08:34:07;;;;;;;6.40;2.78;;;;;;;17.21;64.88;98543.59;5056837;28;20308;-64
2022/05/23 08:36:52;;;;;;;;;;;;;;;17.20;64.74;98539.31;5055995;28;20044;-64
2022/05/23 08:39:36;;;;;;;7.43;2.75;;;;;;;17.22;64.93;98540.09;5056764;28;19943;-63
2022/05/23 08:42:20;;;;;;;5.25;2.85;;;;;;;17.24;64.74;98529.56;5057023;28;20088;-64
2022/05/23 08:45:19;;;;;;;7.13;2.53;;;;;;;17.27;64.67;98524.25;5056417;28;20107;-64
2022/05/23 08:48:36;;;;;;;5.65;2.60;;;;;;;17.29;64.60;98518.03;5056084;28;20047;-63
2022/05/23 08:51:35;;;;;;;7.30;2.72;;;;;;;17.30;64.76;98518.88;5056513;28;20083;-64
2022/05/23 08:54:37;;;;;;;4.75;2.85;;;;;;;17.33;64.75;98518.75;5055963;28;20576;-64
2022/05/23 08:57:39;;;;;;;3.47;2.38;;;;;;;17.34;64.69;98505.63;5055876;28;20111;-63
2022/05/23 09:00:29;;;;;;;3.58;2.53;;;;;;;17.36;64.58;98505.56;5055515;28;20052;-64
2022/05/23 09:03:22;;;;;;;4.28;2.47;;;;;;;17.38;64.64;98497.66;5055025;28;20099;-64
2022/05/23 09:06:15;;;;;;;5.13;2.50;;;;;;;17.40;64.61;98487.97;5055781;28;20549;-64
2022/05/23 09:09:04;;;;;;;6.35;3.15;;;;;;;17.41;64.60;98489.69;5055284;28;20064;-64
2022/05/23 09:11:52;;;;;;;7.88;3.05;;;;;;;17.41;64.61;98481.81;5055702;28;20047;-64
2022/05/23 09:14:37;;;;;;;6.03;2.80;;;;;;;17.44;64.57;98486.97;5055061;28;20064;-64
2022/05/23 09:17:26;;;;;;;5.20;2.80;;;;;;;17.47;64.43;98468.50;5055570;28;20630;-64
2022/05/23 09:20:18;;;;;;;4.85;2.67;;;;;;;17.50;64.59;98469.25;5055143;28;20052;-63
2022/05/23 09:23:10;;;;;;;3.95;2.53;;;;;;;17.50;64.55;98458.78;5055282;28;20052;-65
2022/05/23 09:25:56;;;;;;;4.60;2.70;;;;;;;17.54;64.36;98448.19;5055154;28;20044;-64
2022/05/23 09:28:40;;;;;;;3.22;2.35;;;;;;;17.55;64.36;98453.34;5055392;28;20083;-64
2022/05/23 09:31:40;;;;;;;2.97;2.33;;;;;;;17.56;64.38;98449.00;5055798;28;20075;-65
2022/05/23 09:34:43;;;;;;;4.57;2.53;;;;;;;17.57;64.44;98451.53;5055795;28;20063;-64
2022/05/23 09:37:27;;;;;;;7.82;2.95;;;;;;;17.60;64.51;98447.94;5054665;28;20110;-65
2022/05/23 09:40:26;;;;;;;6.15;2.50;;;;;;;17.61;64.49;98445.28;5054849;28;20059;-65
2022/05/23 09:49:30;;;;;;;5.43;3.13;;;;;;;17.65;64.38;98425.91;5048344;28;20043;-64
2022/05/23 09:52:34;;;;;;;6.60;2.83;;;;;;;17.67;64.42;98430.25;5054309;28;20523;-65
2022/05/23 09:55:34;;;;;;;7.57;3.42;;;;;;;17.68;64.58;98422.31;5054770;28;20516;-64
2022/05/23 09:58:27;;;;;;;6.10;2.63;;;;;;;17.70;64.63;98414.38;5055658;28;20047;-64
2022/05/23 10:01:11;;;;;;;4.13;2.65;;;;;;;17.71;64.55;98411.72;5054519;28;20562;-64
2022/05/23 10:03:56;;;;;;;5.05;3.20;;;;;;;17.71;64.67;98406.47;5054568;28;20044;-64
2022/05/23 10:06:46;;;;;;;4.22;2.80;;;;;;;17.72;64.78;98400.31;5054421;28;20056;-64
2022/05/23 10:09:37;;;;;;;6.22;2.88;;;;;;;17.75;64.82;98394.09;5054338;28;20565;-64
2022/05/23 10:12:24;;;;;;;3.80;2.85;;;;;;;17.76;64.70;98387.94;5054335;28;20056;-64
2022/05/23 10:15:29;;;;;;;5.35;2.85;;;;;;;17.79;64.81;98378.19;5053969;28;20052;-65
2022/05/23 10:18:23;;;;;;;6.72;3.10;;;;;;;17.81;64.65;98370.28;5054251;28;20087;-64
2022/05/23 10:21:36;;;;;;;8.15;3.40;;;;;;;17.82;64.52;98372.00;5053973;28;20051;-65
2022/05/23 10:24:23;;;;;;;5.45;2.90;;;;;;;17.83;64.78;98365.81;5053683;28;20052;-64
2022/05/23 10:27:17;;;;;;;3.88;2.67;;;;;;;17.89;65.00;98362.97;5054240;28;20047;-64
2022/05/23 10:30:05;;;;;;;5.53;3.10;;;;;;;17.91;64.99;98358.50;5054001;28;20084;-64
2022/05/23 10:32:56;;;;;;;5.32;2.95;;;;;;;17.98;64.92;98364.38;5053748;28;20076;-64
2022/05/23 10:35:58;;;;;;;5.20;3.40;;;;;;;18.06;64.87;98350.97;5053489;28;20122;-64
2022/05/23 10:42:10;;;;;;;7.55;3.63;;;;;;;18.18;64.88;98337.34;5054453;28;20068;-63
2022/05/23 10:45:02;;;;;;;7.18;2.83;;;;;;;18.20;64.85;98335.50;5054613;28;20103;-64
2022/05/23 10:47:52;;;;;;;5.28;3.33;;;;;;;18.21;64.65;98334.59;5053415;28;20122;-64
2022/05/23 10:50:54;;;;;;;7.30;2.90;;;;;;;18.22;64.75;98341.53;5053393;28;20048;-63
2022/05/23 10:54:06;;;;;;;4.35;3.20;;;;;;;18.22;64.83;98333.66;5053698;28;20052;-64
2022/05/23 10:57:18;;;;;;;5.55;2.80;;;;;;;18.22;65.09;98331.03;5053642;28;20036;-64
2022/05/23 11:00:14;;;;;;;7.93;3.70;;;;;;;18.22;64.97;98328.44;5054024;28;20144;-64
2022/05/23 11:03:20;;;;;;;5.47;3.42;;;;;;;18.25;65.10;98336.16;5053153;28;20063;-64
2022/05/23 11:06:13;;;;;;;9.80;3.58;;;;;;;18.28;65.19;98347.44;5053286;28;20083;-64
2022/05/23 11:09:16;;;;;;;6.40;2.70;;;;;;;18.25;65.08;98341.41;5054183;28;20086;-63
2022/05/23 11:12:04;;;;;;;6.28;3.70;;;;;;;18.25;65.21;98344.03;5053100;28;20052;-64
2022/05/23 11:14:47;;;;;;;10.60;3.55;;;;;;;18.27;65.02;98343.94;5052954;28;20044;-63
2022/05/23 11:17:35;;;;;;;5.93;3.42;;;;;;;18.26;65.32;98337.88;5053891;28;20064;-64
2022/05/23 11:20:21;;;;;;;6.07;3.47;;;;;;;18.26;65.26;98322.13;5053198;28;20458;-65
2022/05/23 11:23:05;;;;;;;7.50;3.42;;;;;;;18.25;65.17;98328.31;5054164;28;20051;-64
2022/05/23 11:26:03;;;;;;;7.25;3.53;;;;;;;18.25;65.23;98322.19;5053439;28;20523;-65
2022/05/23 11:35:21;;;;;;;8.00;4.13;;;;;;;18.22;65.40;98314.44;5053300;28;20079;-65
2022/05/23 11:38:06;;;;;;;8.50;3.80;;;;;;;18.20;65.32;98309.28;5052668;28;20067;-63
2022/05/23 11:40:50;;;;;;;7.82;3.80;;;;;;;18.19;65.59;98297.09;5052635;28;20428;-64
2022/05/23 11:43:34;;;;;;;7.60;3.45;;;;;;;18.21;65.52;98295.25;5053638;28;20083;-64
2022/05/23 11:47:14;;;;;;;7.10;4.25;;;;;;;18.21;65.64;98297.03;5052570;28;20549;-64
2022/05/23 11:50:16;;;;;;;7.65;3.67;;;;;;;18.19;65.74;98299.72;4997705;28;20056;-64
2022/05/23 11:53:26;;;;;;;9.35;4.38;;;;;;;18.23;65.98;98317.03;5052648;28;20446;-64
2022/05/23 11:56:34;;;;;;;8.35;4.40;;;;;;;18.28;66.16;98311.56;5053274;28;20171;-65
2022/05/23 11:59:18;;;;;;;10.23;4.43;;;;;;;18.30;66.20;98306.25;5052371;28;20052;-64
2022/05/23 12:02:26;;;;;;;8.80;4.60;;;;;;;18.29;66.09;98302.78;5052615;28;20055;-64
2022/05/23 12:05:27;;;;;;;5.85;3.95;;;;;;;18.29;66.35;98309.81;5052500;28;20067;-64
2022/05/23 12:08:36;;;;;;;10.23;4.25;;;;;;;18.28;66.31;98315.97;5052523;28;20095;-64
2022/05/23 12:11:21;;;;;;;8.38;4.10;;;;;;;18.29;66.55;98320.31;5052224;28;20040;-64
2022/05/23 12:14:12;;;;;;;7.38;3.90;;;;;;;18.29;66.44;98325.56;5052618;28;20507;-64
2022/05/23 12:16:55;;;;;;;12.15;4.57;;;;;;;18.31;66.56;98315.81;5052501;28;20484;-65
2022/05/23 12:19:39;;;;;;;9.55;4.32;;;;;;;18.32;66.39;98315.78;5053156;28;20462;-63
2022/05/23 12:22:32;;;;;;;10.45;4.70;;;;;;;18.31;66.71;98311.44;5052529;28;20083;-64
2022/05/23 12:25:21;;;;;;;7.75;4.00;;;;;;;18.30;66.75;98304.50;5052545;28;20068;-64
2022/05/23 12:28:14;;;;;;;6.97;3.75;;;;;;;18.33;66.89;98308.75;5052323;28;20126;-64
2022/05/23 12:31:08;;;;;;;9.88;4.40;;;;;;;18.33;67.15;98306.13;5051601;28;20523;-64
2022/05/23 12:34:07;;;;;;;10.40;4.43;;;;;;;18.33;66.81;98301.75;5052037;28;20090;-64
2022/05/23 12:36:52;;;;;;;8.95;3.95;;;;;;;18.33;67.00;98287.75;5052375;28;20099;-64
2022/05/23 12:39:39;;;;;;;9.02;4.60;;;;;;;18.32;67.05;98288.69;5051720;28;20039;-64
2022/05/23 12:42:41;;;;;;;8.70;4.65;;;;;;;18.31;67.32;98289.59;5052937;28;20060;-64
2022/05/23 12:45:59;;;;;;;8.73;4.20;;;;;;;18.30;67.38;98274.78;5053221;28;20159;-64
2022/05/23 12:49:00;;;;;;;13.20;4.68;;;;;;;18.27;67.43;98262.66;5046812;28;20043;-64
2022/05/23 12:52:24;;;;;;;7.95;4.38;;;;;;;18.25;67.40;98260.13;5051857;28;20048;-64
2022/05/23 12:55:48;;;;;;;6.75;3.95;;;;;;;18.26;67.40;98240.00;5052762;28;20043;-64
2022/05/23 12:58:53;;;;;;;9.40;4.20;;;;;;;18.26;67.50;98245.25;5051340;28;20122;-64
2022/05/23 13:01:43;;;;;;;10.32;4.63;;;;;;;18.24;67.50;98232.22;5051664;28;20496;-63
2022/05/23 13:04:40;;;;;;;9.57;5.18;;;;;;;18.28;67.43;98227.66;5052096;28;20156;-64
2022/05/23 13:07:44;;;;;;;9.40;4.22;;;;;;;18.30;67.57;98215.34;5052098;28;20098;-63
2022/05/23 13:10:33;;;;;;;6.53;4.25;;;;;;;18.30;67.61;98214.47;5051900;28;20118;-64
2022/05/23 13:13:47;;;;;;;7.22;4.10;;;;;;;18.30;67.52;98214.47;5052438;28;20420;-64
2022/05/23 13:16:37;;;;;;;8.20;4.35;;;;;;;18.30;67.86;98222.34;5056091;28;20051;-64
2022/05/23 13:22:25;;;;;;;7.37;4.47;;;;;;;18.39;67.80;98214.91;5056317;28;20051;-64
2022/05/23 13:25:09;;;;;;;6.82;4.45;;;;;;;18.45;67.64;98215.56;5055044;28;20291;-65
2022/05/23 13:27:58;;;;;;;9.75;4.57;;;;;;;18.48;67.90;98197.91;5055879;28;20064;-64
2022/05/23 13:30:56;;;;;;;6.22;4.25;;;;;;;18.46;67.94;98212.03;5055692;28;20044;-64
2022/05/23 13:33:46;;;;;;;8.10;4.78;;;;;;;18.49;67.92;98199.63;5055113;28;20091;-64
2022/05/23 13:36:43;;;;;;;13.48;4.15;;;;;;;18.50;67.77;98192.63;5054840;28;20118;-65
2022/05/23 13:39:28;;;;;;;8.93;3.97;;;;;;;18.53;68.29;98185.44;5055146;28;20458;-64
2022/05/23 13:42:33;;;;;;;8.15;4.10;;;;;;;18.56;68.05;98173.94;5055579;28;20539;-64
2022/05/23 13:45:24;;;;;;;6.63;4.60;;;;;;;18.56;68.06;98179.19;5055720;28;20055;-64
2022/05/23 13:48:16;;;;;;;5.78;3.92;;;;;;;18.58;68.33;98171.28;5054586;28;20557;-64
2022/05/23 13:51:06;;;;;;;10.52;4.25;;;;;;;18.60;68.11;98175.53;5055336;28;20055;-64
2022/05/23 13:54:08;;;;;;;8.82;5.43;;;;;;;18.61;68.04;98165.91;5055203;28;20416;-65
2022/05/23 13:57:23;;;;;;;7.05;4.43;;;;;;;18.60;67.98;98158.94;5054747;28;20102;-64
2022/05/23 14:00:14;;;;;;;9.57;4.55;;;;;;;18.59;68.33;98159.88;5050700;28;20063;-65
2022/05/23 14:03:05;;;;;;;5.65;4.32;;;;;;;18.59;68.40;98149.38;5055016;28;20060;-64
2022/05/23 14:05:52;;;;;;;7.13;4.75;;;;;;;18.59;68.38;98149.38;5055378;28;20048;-64
2022/05/23 14:08:40;;;;;;;6.55;4.32;;;;;;;18.59;68.25;98152.00;5055613;28;20469;-63
2022/05/23 14:11:35;;;;;;;11.95;5.05;;;;;;;18.56;68.53;98148.59;5054681;28;20052;-64
2022/05/23 14:14:27;;;;;;;10.00;4.55;;;;;;;18.56;68.55;98143.34;5054152;28;20606;-63
2022/05/23 14:17:15;;;;;;;7.00;4.93;;;;;;;18.57;68.66;98146.81;5054233;28;20400;-63
2022/05/23 14:20:28;;;;;;;8.50;5.30;;;;;;;18.55;68.86;98144.25;5054281;28;20103;-64
2022/05/23 14:23:12;;;;;;;8.98;5.18;;;;;;;18.57;68.90;98136.31;5054847;28;20094;-64